sensor_id;sensor_type;location;lat;lon;timestamp;P1;durP1;ratioP1;P2;durP2;ratioP2
21444;SDS011;10883;51.946;20.140;2023-01-31T00:01:21;18.95;;;6.70;;
21444;SDS011;10883;51.946;20.140;2023-01-31T00:03:52;20.15;;;7.28;;
21444;SDS011;10883;51.946;20.140;2023-01-31T00:06:21;14.02;;;6.85;;
21444;SDS011;10883;51.946;20.140;2023-01-31T00:08:51;17.38;;;7.28;;
21444;SDS011;10883;51.946;20.140;2023-01-31T00:11:19;19.85;;;7.25;;
21444;SDS011;10883;51.946;20.140;2023-01-31T00:13:46;15.25;;;7.03;;
21444;SDS011;10883;51.946;20.140;2023-01-31T00:16:13;20.75;;;7.60;;
21444;SDS011;10883;51.946;20.140;2023-01-31T00:18:39;17.08;;;7.28;;
21444;SDS011;10883;51.946;20.140;2023-01-31T00:23:48;15.65;;;5.07;;
21444;SDS011;10883;51.946;20.140;2023-01-31T00:26:19;16.38;;;6.40;;
21444;SDS011;10883;51.946;20.140;2023-01-31T00:29:03;11.65;;;5.60;;
21444;SDS011;10883;51.946;20.140;2023-01-31T00:31:30;17.05;;;6.50;;
21444;SDS011;10883;51.946;20.140;2023-01-31T00:33:58;13.07;;;5.75;;
21444;SDS011;10883;51.946;20.140;2023-01-31T00:36:26;14.27;;;5.97;;
21444;SDS011;10883;51.946;20.140;2023-01-31T00:38:55;14.65;;;6.63;;
21444;SDS011;10883;51.946;20.140;2023-01-31T00:41:22;12.52;;;5.32;;
21444;SDS011;10883;51.946;20.140;2023-01-31T00:43:49;11.70;;;5.57;;
21444;SDS011;10883;51.946;20.140;2023-01-31T00:46:16;13.63;;;6.25;;
21444;SDS011;10883;51.946;20.140;2023-01-31T00:48:44;16.75;;;5.70;;
21444;SDS011;10883;51.946;20.140;2023-01-31T00:51:10;13.65;;;5.75;;
21444;SDS011;10883;51.946;20.140;2023-01-31T00:53:36;18.98;;;6.35;;
21444;SDS011;10883;51.946;20.140;2023-01-31T00:56:03;18.48;;;6.45;;
21444;SDS011;10883;51.946;20.140;2023-01-31T00:58:31;18.50;;;6.53;;
21444;SDS011;10883;51.946;20.140;2023-01-31T01:01:08;16.08;;;6.20;;
21444;SDS011;10883;51.946;20.140;2023-01-31T01:03:34;18.27;;;6.35;;
21444;SDS011;10883;51.946;20.140;2023-01-31T01:06:00;18.55;;;6.20;;
21444;SDS011;10883;51.946;20.140;2023-01-31T01:08:27;11.65;;;4.80;;
21444;SDS011;10883;51.946;20.140;2023-01-31T01:10:53;8.65;;;4.10;;
21444;SDS011;10883;51.946;20.140;2023-01-31T01:13:19;11.32;;;5.07;;
21444;SDS011;10883;51.946;20.140;2023-01-31T01:15:44;15.98;;;6.00;;
21444;SDS011;10883;51.946;20.140;2023-01-31T01:18:10;18.73;;;6.80;;
21444;SDS011;10883;51.946;20.140;2023-01-31T01:20:36;33.10;;;10.45;;
21444;SDS011;10883;51.946;20.140;2023-01-31T01:23:02;17.35;;;5.00;;
21444;SDS011;10883;51.946;20.140;2023-01-31T01:25:27;20.45;;;6.75;;
21444;SDS011;10883;51.946;20.140;2023-01-31T01:27:53;12.18;;;5.47;;
21444;SDS011;10883;51.946;20.140;2023-01-31T01:30:19;14.38;;;6.00;;
21444;SDS011;10883;51.946;20.140;2023-01-31T01:32:45;18.02;;;6.30;;
21444;SDS011;10883;51.946;20.140;2023-01-31T01:35:11;20.08;;;6.43;;
21444;SDS011;10883;51.946;20.140;2023-01-31T01:37:37;20.42;;;7.35;;
21444;SDS011;10883;51.946;20.140;2023-01-31T01:40:03;18.48;;;7.32;;
21444;SDS011;10883;51.946;20.140;2023-01-31T01:42:32;20.85;;;6.18;;
21444;SDS011;10883;51.946;20.140;2023-01-31T01:44:59;24.20;;;8.98;;
21444;SDS011;10883;51.946;20.140;2023-01-31T01:52:59;20.77;;;6.80;;
21444;SDS011;10883;51.946;20.140;2023-01-31T01:55:29;26.15;;;6.68;;
21444;SDS011;10883;51.946;20.140;2023-01-31T01:57:58;19.10;;;6.97;;
21444;SDS011;10883;51.946;20.140;2023-01-31T02:00:34;27.80;;;7.53;;
21444;SDS011;10883;51.946;20.140;2023-01-31T02:03:02;19.50;;;5.75;;
21444;SDS011;10883;51.946;20.140;2023-01-31T02:05:41;20.80;;;7.18;;
21444;SDS011;10883;51.946;20.140;2023-01-31T02:08:13;16.13;;;5.93;;
21444;SDS011;10883;51.946;20.140;2023-01-31T02:10:43;34.00;;;8.63;;
21444;SDS011;10883;51.946;20.140;2023-01-31T02:13:26;23.15;;;7.10;;
21444;SDS011;10883;51.946;20.140;2023-01-31T02:15:53;22.10;;;6.18;;
21444;SDS011;10883;51.946;20.140;2023-01-31T02:18:20;21.88;;;8.55;;
21444;SDS011;10883;51.946;20.140;2023-01-31T02:23:24;19.33;;;5.60;;
21444;SDS011;10883;51.946;20.140;2023-01-31T02:26:09;21.35;;;5.55;;
21444;SDS011;10883;51.946;20.140;2023-01-31T02:28:53;24.45;;;4.95;;
21444;SDS011;10883;51.946;20.140;2023-01-31T02:31:53;22.30;;;5.75;;
21444;SDS011;10883;51.946;20.140;2023-01-31T02:37:15;26.25;;;6.05;;
21444;SDS011;10883;51.946;20.140;2023-01-31T02:42:58;34.80;;;6.53;;
21444;SDS011;10883;51.946;20.140;2023-01-31T02:48:08;17.05;;;4.88;;
21444;SDS011;10883;51.946;20.140;2023-01-31T02:56:38;18.08;;;5.13;;
21444;SDS011;10883;51.946;20.140;2023-01-31T02:59:25;21.98;;;5.72;;
21444;SDS011;10883;51.946;20.140;2023-01-31T03:02:00;17.40;;;4.80;;
21444;SDS011;10883;51.946;20.140;2023-01-31T03:04:30;23.90;;;5.50;;
21444;SDS011;10883;51.946;20.140;2023-01-31T03:06:59;20.92;;;4.32;;
21444;SDS011;10883;51.946;20.140;2023-01-31T03:09:48;18.83;;;4.47;;
21444;SDS011;10883;51.946;20.140;2023-01-31T03:17:59;15.05;;;4.85;;
21444;SDS011;10883;51.946;20.140;2023-01-31T03:23:09;11.52;;;4.28;;
21444;SDS011;10883;51.946;20.140;2023-01-31T03:25:47;19.40;;;3.83;;
21444;SDS011;10883;51.946;20.140;2023-01-31T03:28:19;17.02;;;4.50;;
21444;SDS011;10883;51.946;20.140;2023-01-31T03:30:48;14.52;;;3.95;;
21444;SDS011;10883;51.946;20.140;2023-01-31T03:33:35;18.88;;;4.93;;
21444;SDS011;10883;51.946;20.140;2023-01-31T03:36:14;16.17;;;3.05;;
21444;SDS011;10883;51.946;20.140;2023-01-31T03:39:15;16.92;;;3.45;;
21444;SDS011;10883;51.946;20.140;2023-01-31T03:42:26;17.17;;;4.25;;
21444;SDS011;10883;51.946;20.140;2023-01-31T03:45:06;21.15;;;5.55;;
21444;SDS011;10883;51.946;20.140;2023-01-31T03:47:42;12.98;;;3.63;;
21444;SDS011;10883;51.946;20.140;2023-01-31T03:50:12;17.55;;;4.57;;
21444;SDS011;10883;51.946;20.140;2023-01-31T03:52:55;21.73;;;4.45;;
21444;SDS011;10883;51.946;20.140;2023-01-31T03:55:29;16.70;;;4.55;;
21444;SDS011;10883;51.946;20.140;2023-01-31T03:58:02;20.15;;;5.38;;
21444;SDS011;10883;51.946;20.140;2023-01-31T04:00:30;14.63;;;3.92;;
21444;SDS011;10883;51.946;20.140;2023-01-31T04:03:03;14.68;;;3.55;;
21444;SDS011;10883;51.946;20.140;2023-01-31T04:05:35;14.90;;;3.78;;
21444;SDS011;10883;51.946;20.140;2023-01-31T04:08:01;23.48;;;4.68;;
21444;SDS011;10883;51.946;20.140;2023-01-31T04:10:27;21.20;;;3.50;;
21444;SDS011;10883;51.946;20.140;2023-01-31T04:12:53;14.55;;;3.72;;
21444;SDS011;10883;51.946;20.140;2023-01-31T04:15:19;11.82;;;3.50;;
21444;SDS011;10883;51.946;20.140;2023-01-31T04:17:45;14.25;;;3.35;;
21444;SDS011;10883;51.946;20.140;2023-01-31T04:20:11;14.40;;;3.30;;
21444;SDS011;10883;51.946;20.140;2023-01-31T04:22:37;19.48;;;5.25;;
21444;SDS011;10883;51.946;20.140;2023-01-31T04:25:03;19.92;;;4.25;;
21444;SDS011;10883;51.946;20.140;2023-01-31T04:27:30;15.30;;;4.18;;
21444;SDS011;10883;51.946;20.140;2023-01-31T04:29:56;23.95;;;5.63;;
21444;SDS011;10883;51.946;20.140;2023-01-31T04:32:22;19.90;;;5.00;;
21444;SDS011;10883;51.946;20.140;2023-01-31T04:34:47;19.60;;;3.72;;
21444;SDS011;10883;51.946;20.140;2023-01-31T04:37:14;18.73;;;3.67;;
21444;SDS011;10883;51.946;20.140;2023-01-31T04:39:40;16.02;;;3.60;;
21444;SDS011;10883;51.946;20.140;2023-01-31T04:42:06;16.13;;;3.42;;
21444;SDS011;10883;51.946;20.140;2023-01-31T04:44:31;12.73;;;3.75;;
21444;SDS011;10883;51.946;20.140;2023-01-31T04:46:57;14.75;;;3.47;;
21444;SDS011;10883;51.946;20.140;2023-01-31T04:49:23;11.48;;;3.22;;
21444;SDS011;10883;51.946;20.140;2023-01-31T04:51:49;17.90;;;3.60;;
21444;SDS011;10883;51.946;20.140;2023-01-31T04:54:14;11.65;;;2.83;;
21444;SDS011;10883;51.946;20.140;2023-01-31T04:56:40;16.77;;;3.70;;
21444;SDS011;10883;51.946;20.140;2023-01-31T04:59:06;16.25;;;3.17;;
21444;SDS011;10883;51.946;20.140;2023-01-31T05:01:32;10.68;;;3.33;;
21444;SDS011;10883;51.946;20.140;2023-01-31T05:03:57;15.75;;;5.72;;
21444;SDS011;10883;51.946;20.140;2023-01-31T05:06:23;18.30;;;4.05;;
21444;SDS011;10883;51.946;20.140;2023-01-31T05:08:49;13.27;;;3.40;;
21444;SDS011;10883;51.946;20.140;2023-01-31T05:11:18;26.02;;;3.97;;
21444;SDS011;10883;51.946;20.140;2023-01-31T05:13:44;23.55;;;4.68;;
21444;SDS011;10883;51.946;20.140;2023-01-31T05:16:11;17.42;;;7.55;;
21444;SDS011;10883;51.946;20.140;2023-01-31T05:18:37;21.83;;;4.57;;
21444;SDS011;10883;51.946;20.140;2023-01-31T05:21:04;16.90;;;4.43;;
21444;SDS011;10883;51.946;20.140;2023-01-31T05:23:31;18.17;;;6.47;;
21444;SDS011;10883;51.946;20.140;2023-01-31T05:25:57;18.88;;;4.43;;
21444;SDS011;10883;51.946;20.140;2023-01-31T05:28:23;16.58;;;4.32;;
21444;SDS011;10883;51.946;20.140;2023-01-31T05:30:53;16.90;;;4.05;;
21444;SDS011;10883;51.946;20.140;2023-01-31T05:33:25;19.60;;;3.78;;
21444;SDS011;10883;51.946;20.140;2023-01-31T05:35:51;16.33;;;5.13;;
21444;SDS011;10883;51.946;20.140;2023-01-31T05:38:17;15.40;;;3.72;;
21444;SDS011;10883;51.946;20.140;2023-01-31T05:40:43;14.35;;;3.90;;
21444;SDS011;10883;51.946;20.140;2023-01-31T05:43:09;14.77;;;5.32;;
21444;SDS011;10883;51.946;20.140;2023-01-31T05:45:35;24.00;;;5.60;;
21444;SDS011;10883;51.946;20.140;2023-01-31T05:48:01;14.65;;;4.55;;
21444;SDS011;10883;51.946;20.140;2023-01-31T05:50:27;18.35;;;4.88;;
21444;SDS011;10883;51.946;20.140;2023-01-31T05:52:59;18.17;;;5.65;;
21444;SDS011;10883;51.946;20.140;2023-01-31T05:55:27;22.42;;;5.22;;
21444;SDS011;10883;51.946;20.140;2023-01-31T05:57:53;17.30;;;4.85;;
21444;SDS011;10883;51.946;20.140;2023-01-31T06:00:19;24.13;;;4.72;;
21444;SDS011;10883;51.946;20.140;2023-01-31T06:02:45;21.55;;;4.22;;
21444;SDS011;10883;51.946;20.140;2023-01-31T06:05:12;12.18;;;3.28;;
21444;SDS011;10883;51.946;20.140;2023-01-31T06:07:38;19.70;;;4.80;;
21444;SDS011;10883;51.946;20.140;2023-01-31T06:10:05;24.45;;;5.45;;
21444;SDS011;10883;51.946;20.140;2023-01-31T06:12:33;17.13;;;4.68;;
21444;SDS011;10883;51.946;20.140;2023-01-31T06:14:59;12.80;;;4.50;;
21444;SDS011;10883;51.946;20.140;2023-01-31T06:17:25;16.73;;;5.63;;
21444;SDS011;10883;51.946;20.140;2023-01-31T06:19:50;23.90;;;5.68;;
21444;SDS011;10883;51.946;20.140;2023-01-31T06:22:17;16.13;;;4.20;;
21444;SDS011;10883;51.946;20.140;2023-01-31T06:24:43;12.35;;;3.60;;
21444;SDS011;10883;51.946;20.140;2023-01-31T06:27:09;17.48;;;4.10;;
21444;SDS011;10883;51.946;20.140;2023-01-31T06:29:34;16.45;;;4.45;;
21444;SDS011;10883;51.946;20.140;2023-01-31T06:32:00;14.10;;;3.47;;
21444;SDS011;10883;51.946;20.140;2023-01-31T06:34:26;13.77;;;3.35;;
21444;SDS011;10883;51.946;20.140;2023-01-31T06:36:52;8.30;;;3.60;;
21444;SDS011;10883;51.946;20.140;2023-01-31T06:39:17;11.95;;;3.20;;
21444;SDS011;10883;51.946;20.140;2023-01-31T06:41:44;14.68;;;3.38;;
21444;SDS011;10883;51.946;20.140;2023-01-31T06:44:09;18.50;;;4.50;;
21444;SDS011;10883;51.946;20.140;2023-01-31T06:46:35;22.65;;;5.68;;
21444;SDS011;10883;51.946;20.140;2023-01-31T06:49:01;28.90;;;5.43;;
21444;SDS011;10883;51.946;20.140;2023-01-31T06:51:27;25.33;;;6.38;;
21444;SDS011;10883;51.946;20.140;2023-01-31T06:53:53;24.67;;;5.70;;
21444;SDS011;10883;51.946;20.140;2023-01-31T06:56:20;17.50;;;3.58;;
21444;SDS011;10883;51.946;20.140;2023-01-31T06:58:46;12.40;;;3.25;;
21444;SDS011;10883;51.946;20.140;2023-01-31T07:01:12;16.25;;;3.97;;
21444;SDS011;10883;51.946;20.140;2023-01-31T07:06:53;12.20;;;3.42;;
21444;SDS011;10883;51.946;20.140;2023-01-31T07:09:19;14.30;;;3.83;;
21444;SDS011;10883;51.946;20.140;2023-01-31T07:11:44;15.38;;;3.20;;
21444;SDS011;10883;51.946;20.140;2023-01-31T07:14:10;19.73;;;5.00;;
21444;SDS011;10883;51.946;20.140;2023-01-31T07:16:36;20.25;;;5.38;;
21444;SDS011;10883;51.946;20.140;2023-01-31T07:19:02;15.35;;;5.32;;
21444;SDS011;10883;51.946;20.140;2023-01-31T07:21:28;19.50;;;4.35;;
21444;SDS011;10883;51.946;20.140;2023-01-31T07:23:54;20.13;;;3.75;;
21444;SDS011;10883;51.946;20.140;2023-01-31T07:26:20;19.80;;;4.28;;
21444;SDS011;10883;51.946;20.140;2023-01-31T07:28:45;14.30;;;4.65;;
21444;SDS011;10883;51.946;20.140;2023-01-31T07:31:12;14.85;;;4.15;;
21444;SDS011;10883;51.946;20.140;2023-01-31T07:33:39;13.35;;;4.50;;
21444;SDS011;10883;51.946;20.140;2023-01-31T07:36:06;25.80;;;8.48;;
21444;SDS011;10883;51.946;20.140;2023-01-31T07:38:34;111.25;;;28.05;;
21444;SDS011;10883;51.946;20.140;2023-01-31T07:41:00;70.25;;;17.02;;
21444;SDS011;10883;51.946;20.140;2023-01-31T07:43:27;46.33;;;11.02;;
21444;SDS011;10883;51.946;20.140;2023-01-31T07:45:53;59.42;;;13.55;;
21444;SDS011;10883;51.946;20.140;2023-01-31T07:48:19;41.53;;;9.73;;
21444;SDS011;10883;51.946;20.140;2023-01-31T07:50:51;36.40;;;8.60;;
21444;SDS011;10883;51.946;20.140;2023-01-31T07:53:21;50.03;;;11.43;;
21444;SDS011;10883;51.946;20.140;2023-01-31T07:55:47;46.03;;;10.25;;
21444;SDS011;10883;51.946;20.140;2023-01-31T07:58:13;59.17;;;13.60;;
21444;SDS011;10883;51.946;20.140;2023-01-31T08:00:40;75.47;;;17.27;;
21444;SDS011;10883;51.946;20.140;2023-01-31T08:03:26;55.08;;;12.88;;
21444;SDS011;10883;51.946;20.140;2023-01-31T08:05:57;34.17;;;9.05;;
21444;SDS011;10883;51.946;20.140;2023-01-31T08:08:29;44.70;;;11.50;;
21444;SDS011;10883;51.946;20.140;2023-01-31T08:10:55;16.63;;;6.38;;
21444;SDS011;10883;51.946;20.140;2023-01-31T08:13:21;38.75;;;9.82;;
21444;SDS011;10883;51.946;20.140;2023-01-31T08:15:47;36.40;;;9.85;;
21444;SDS011;10883;51.946;20.140;2023-01-31T08:18:15;36.63;;;11.02;;
21444;SDS011;10883;51.946;20.140;2023-01-31T08:20:40;29.83;;;8.77;;
21444;SDS011;10883;51.946;20.140;2023-01-31T08:23:06;35.80;;;9.43;;
21444;SDS011;10883;51.946;20.140;2023-01-31T08:25:32;42.05;;;10.23;;
21444;SDS011;10883;51.946;20.140;2023-01-31T08:27:58;30.25;;;8.57;;
21444;SDS011;10883;51.946;20.140;2023-01-31T08:30:24;37.13;;;10.00;;
21444;SDS011;10883;51.946;20.140;2023-01-31T08:32:50;33.03;;;9.13;;
21444;SDS011;10883;51.946;20.140;2023-01-31T08:35:16;32.00;;;8.15;;
21444;SDS011;10883;51.946;20.140;2023-01-31T08:37:42;50.03;;;14.32;;
21444;SDS011;10883;51.946;20.140;2023-01-31T08:40:08;40.50;;;11.60;;
21444;SDS011;10883;51.946;20.140;2023-01-31T08:42:34;42.13;;;12.27;;
21444;SDS011;10883;51.946;20.140;2023-01-31T08:44:59;39.40;;;10.82;;
21444;SDS011;10883;51.946;20.140;2023-01-31T08:47:25;21.63;;;7.40;;
21444;SDS011;10883;51.946;20.140;2023-01-31T08:49:51;29.90;;;9.25;;
21444;SDS011;10883;51.946;20.140;2023-01-31T08:52:17;18.67;;;7.03;;
21444;SDS011;10883;51.946;20.140;2023-01-31T08:54:42;25.67;;;8.45;;
21444;SDS011;10883;51.946;20.140;2023-01-31T08:57:08;22.55;;;7.88;;
21444;SDS011;10883;51.946;20.140;2023-01-31T08:59:34;28.75;;;9.23;;
21444;SDS011;10883;51.946;20.140;2023-01-31T09:02:00;18.30;;;5.45;;
21444;SDS011;10883;51.946;20.140;2023-01-31T09:04:26;18.20;;;5.82;;
21444;SDS011;10883;51.946;20.140;2023-01-31T09:06:52;13.73;;;5.35;;
21444;SDS011;10883;51.946;20.140;2023-01-31T09:09:19;20.70;;;7.63;;
21444;SDS011;10883;51.946;20.140;2023-01-31T09:11:45;17.85;;;5.30;;
21444;SDS011;10883;51.946;20.140;2023-01-31T09:14:10;14.40;;;5.00;;
21444;SDS011;10883;51.946;20.140;2023-01-31T09:16:36;14.25;;;4.47;;
21444;SDS011;10883;51.946;20.140;2023-01-31T09:19:02;11.38;;;4.68;;
21444;SDS011;10883;51.946;20.140;2023-01-31T09:21:28;10.38;;;3.40;;
21444;SDS011;10883;51.946;20.140;2023-01-31T09:23:58;12.45;;;3.78;;
21444;SDS011;10883;51.946;20.140;2023-01-31T09:26:28;10.60;;;3.42;;
21444;SDS011;10883;51.946;20.140;2023-01-31T09:28:54;11.07;;;4.38;;
21444;SDS011;10883;51.946;20.140;2023-01-31T09:31:22;12.07;;;3.38;;
21444;SDS011;10883;51.946;20.140;2023-01-31T09:33:48;14.35;;;3.88;;
21444;SDS011;10883;51.946;20.140;2023-01-31T09:36:15;12.02;;;3.17;;
21444;SDS011;10883;51.946;20.140;2023-01-31T09:38:43;10.82;;;3.70;;
21444;SDS011;10883;51.946;20.140;2023-01-31T09:41:29;20.75;;;4.68;;
21444;SDS011;10883;51.946;20.140;2023-01-31T09:44:16;44.22;;;12.80;;
21444;SDS011;10883;51.946;20.140;2023-01-31T09:46:49;32.13;;;8.90;;
21444;SDS011;10883;51.946;20.140;2023-01-31T09:49:26;32.42;;;9.52;;
21444;SDS011;10883;51.946;20.140;2023-01-31T09:52:00;23.52;;;7.45;;
21444;SDS011;10883;51.946;20.140;2023-01-31T09:54:32;26.20;;;7.25;;
21444;SDS011;10883;51.946;20.140;2023-01-31T10:07:52;28.10;;;8.13;;
21444;SDS011;10883;51.946;20.140;2023-01-31T10:13:05;15.30;;;5.05;;
21444;SDS011;10883;51.946;20.140;2023-01-31T10:15:42;31.35;;;8.07;;
21444;SDS011;10883;51.946;20.140;2023-01-31T10:20:38;13.63;;;5.53;;
21444;SDS011;10883;51.946;20.140;2023-01-31T10:25:51;20.75;;;7.47;;
21444;SDS011;10883;51.946;20.140;2023-01-31T10:30:55;23.75;;;6.28;;
21444;SDS011;10883;51.946;20.140;2023-01-31T10:33:34;20.75;;;6.93;;
21444;SDS011;10883;51.946;20.140;2023-01-31T10:36:22;20.15;;;8.32;;
21444;SDS011;10883;51.946;20.140;2023-01-31T10:41:53;17.42;;;7.05;;
21444;SDS011;10883;51.946;20.140;2023-01-31T10:47:19;14.13;;;5.28;;
21444;SDS011;10883;51.946;20.140;2023-01-31T10:49:47;12.52;;;4.65;;
21444;SDS011;10883;51.946;20.140;2023-01-31T10:52:24;15.65;;;5.05;;
21444;SDS011;10883;51.946;20.140;2023-01-31T10:55:00;16.92;;;4.15;;
21444;SDS011;10883;51.946;20.140;2023-01-31T10:57:36;11.50;;;3.95;;
21444;SDS011;10883;51.946;20.140;2023-01-31T11:00:02;14.82;;;4.70;;
21444;SDS011;10883;51.946;20.140;2023-01-31T11:02:30;13.70;;;3.72;;
21444;SDS011;10883;51.946;20.140;2023-01-31T11:04:56;19.02;;;5.82;;
21444;SDS011;10883;51.946;20.140;2023-01-31T11:07:24;19.27;;;6.20;;
21444;SDS011;10883;51.946;20.140;2023-01-31T11:09:54;8.63;;;3.10;;
21444;SDS011;10883;51.946;20.140;2023-01-31T11:12:21;10.90;;;3.33;;
21444;SDS011;10883;51.946;20.140;2023-01-31T11:15:14;25.20;;;6.35;;
21444;SDS011;10883;51.946;20.140;2023-01-31T11:17:42;20.92;;;8.05;;
21444;SDS011;10883;51.946;20.140;2023-01-31T11:20:17;17.20;;;5.85;;
21444;SDS011;10883;51.946;20.140;2023-01-31T11:22:51;9.57;;;3.33;;
21444;SDS011;10883;51.946;20.140;2023-01-31T11:25:19;10.25;;;2.75;;
21444;SDS011;10883;51.946;20.140;2023-01-31T11:27:47;20.00;;;6.72;;
21444;SDS011;10883;51.946;20.140;2023-01-31T11:32:52;27.83;;;11.25;;
21444;SDS011;10883;51.946;20.140;2023-01-31T11:37:51;17.60;;;7.30;;
21444;SDS011;10883;51.946;20.140;2023-01-31T11:40:21;18.80;;;7.22;;
21444;SDS011;10883;51.946;20.140;2023-01-31T11:42:55;25.38;;;7.63;;
21444;SDS011;10883;51.946;20.140;2023-01-31T11:45:29;10.98;;;4.45;;
21444;SDS011;10883;51.946;20.140;2023-01-31T11:48:58;13.75;;;4.30;;
21444;SDS011;10883;51.946;20.140;2023-01-31T11:50:55;13.38;;;4.38;;
21444;SDS011;10883;51.946;20.140;2023-01-31T11:53:28;12.48;;;4.00;;
21444;SDS011;10883;51.946;20.140;2023-01-31T11:58:42;16.67;;;4.00;;
21444;SDS011;10883;51.946;20.140;2023-01-31T12:03:36;12.90;;;4.45;;
21444;SDS011;10883;51.946;20.140;2023-01-31T12:06:08;14.60;;;4.43;;
21444;SDS011;10883;51.946;20.140;2023-01-31T12:08:52;17.95;;;5.47;;
21444;SDS011;10883;51.946;20.140;2023-01-31T12:13:51;13.52;;;4.22;;
21444;SDS011;10883;51.946;20.140;2023-01-31T12:16:24;12.68;;;5.20;;
21444;SDS011;10883;51.946;20.140;2023-01-31T12:18:59;20.25;;;7.55;;
21444;SDS011;10883;51.946;20.140;2023-01-31T12:24:13;12.00;;;4.82;;
21444;SDS011;10883;51.946;20.140;2023-01-31T12:27:54;16.02;;;6.50;;
21444;SDS011;10883;51.946;20.140;2023-01-31T12:35:38;12.93;;;4.38;;
21444;SDS011;10883;51.946;20.140;2023-01-31T12:46:24;14.52;;;5.72;;
21444;SDS011;10883;51.946;20.140;2023-01-31T12:49:11;12.00;;;4.28;;
21444;SDS011;10883;51.946;20.140;2023-01-31T13:00:07;32.03;;;11.75;;
21444;SDS011;10883;51.946;20.140;2023-01-31T13:05:55;24.05;;;9.13;;
21444;SDS011;10883;51.946;20.140;2023-01-31T13:08:29;24.75;;;8.40;;
21444;SDS011;10883;51.946;20.140;2023-01-31T13:13:36;41.97;;;12.02;;
21444;SDS011;10883;51.946;20.140;2023-01-31T13:16:12;27.08;;;9.30;;
21444;SDS011;10883;51.946;20.140;2023-01-31T13:18:48;22.13;;;9.02;;
21444;SDS011;10883;51.946;20.140;2023-01-31T13:21:17;21.88;;;6.72;;
21444;SDS011;10883;51.946;20.140;2023-01-31T13:23:54;42.17;;;15.80;;
21444;SDS011;10883;51.946;20.140;2023-01-31T13:26:35;35.80;;;9.40;;
21444;SDS011;10883;51.946;20.140;2023-01-31T13:29:55;16.55;;;6.97;;
21444;SDS011;10883;51.946;20.140;2023-01-31T13:34:43;21.70;;;6.35;;
21444;SDS011;10883;51.946;20.140;2023-01-31T13:37:44;40.75;;;10.77;;
21444;SDS011;10883;51.946;20.140;2023-01-31T13:40:24;20.60;;;8.13;;
21444;SDS011;10883;51.946;20.140;2023-01-31T13:42:56;17.80;;;7.00;;
21444;SDS011;10883;51.946;20.140;2023-01-31T13:45:29;22.23;;;8.23;;
21444;SDS011;10883;51.946;20.140;2023-01-31T13:48:09;22.02;;;7.25;;
21444;SDS011;10883;51.946;20.140;2023-01-31T13:51:20;28.23;;;8.20;;
21444;SDS011;10883;51.946;20.140;2023-01-31T13:53:55;41.47;;;14.80;;
21444;SDS011;10883;51.946;20.140;2023-01-31T13:56:29;45.63;;;16.58;;
21444;SDS011;10883;51.946;20.140;2023-01-31T13:58:58;34.63;;;12.30;;
21444;SDS011;10883;51.946;20.140;2023-01-31T14:01:25;30.20;;;9.63;;
21444;SDS011;10883;51.946;20.140;2023-01-31T14:07:15;27.77;;;9.93;;
21444;SDS011;10883;51.946;20.140;2023-01-31T14:09:36;31.02;;;11.73;;
21444;SDS011;10883;51.946;20.140;2023-01-31T14:14:46;35.83;;;14.82;;
21444;SDS011;10883;51.946;20.140;2023-01-31T14:20:23;36.50;;;17.90;;
21444;SDS011;10883;51.946;20.140;2023-01-31T14:25:53;25.30;;;10.18;;
21444;SDS011;10883;51.946;20.140;2023-01-31T14:28:19;29.13;;;11.40;;
21444;SDS011;10883;51.946;20.140;2023-01-31T14:30:45;93.10;;;27.77;;
21444;SDS011;10883;51.946;20.140;2023-01-31T14:42:17;34.90;;;8.50;;
21444;SDS011;10883;51.946;20.140;2023-01-31T14:57:53;29.17;;;7.82;;
21444;SDS011;10883;51.946;20.140;2023-01-31T15:00:29;30.33;;;9.48;;
21444;SDS011;10883;51.946;20.140;2023-01-31T15:03:02;24.08;;;6.57;;
21444;SDS011;10883;51.946;20.140;2023-01-31T15:13:32;38.58;;;10.88;;
21444;SDS011;10883;51.946;20.140;2023-01-31T15:16:01;48.33;;;14.50;;
21444;SDS011;10883;51.946;20.140;2023-01-31T15:18:30;51.97;;;16.60;;
21444;SDS011;10883;51.946;20.140;2023-01-31T15:20:57;40.05;;;10.57;;
21444;SDS011;10883;51.946;20.140;2023-01-31T15:23:27;63.47;;;19.45;;
21444;SDS011;10883;51.946;20.140;2023-01-31T15:25:56;63.53;;;18.10;;
21444;SDS011;10883;51.946;20.140;2023-01-31T15:28:28;60.58;;;18.23;;
21444;SDS011;10883;51.946;20.140;2023-01-31T15:31:01;70.45;;;19.75;;
21444;SDS011;10883;51.946;20.140;2023-01-31T15:33:34;72.05;;;19.55;;
21444;SDS011;10883;51.946;20.140;2023-01-31T15:36:16;86.85;;;24.95;;
21444;SDS011;10883;51.946;20.140;2023-01-31T15:38:52;55.22;;;16.60;;
21444;SDS011;10883;51.946;20.140;2023-01-31T15:41:22;77.80;;;21.33;;
21444;SDS011;10883;51.946;20.140;2023-01-31T15:43:54;70.75;;;23.35;;
21444;SDS011;10883;51.946;20.140;2023-01-31T15:46:22;86.78;;;23.40;;
21444;SDS011;10883;51.946;20.140;2023-01-31T15:48:51;83.65;;;23.80;;
21444;SDS011;10883;51.946;20.140;2023-01-31T15:51:17;83.95;;;27.63;;
21444;SDS011;10883;51.946;20.140;2023-01-31T15:53:44;86.07;;;30.65;;
21444;SDS011;10883;51.946;20.140;2023-01-31T15:56:20;89.45;;;32.65;;
21444;SDS011;10883;51.946;20.140;2023-01-31T15:58:50;74.20;;;27.42;;
21444;SDS011;10883;51.946;20.140;2023-01-31T16:01:18;81.78;;;28.55;;
21444;SDS011;10883;51.946;20.140;2023-01-31T16:03:48;60.22;;;24.23;;
21444;SDS011;10883;51.946;20.140;2023-01-31T16:06:29;67.68;;;29.92;;
21444;SDS011;10883;51.946;20.140;2023-01-31T16:09:00;62.28;;;30.05;;
21444;SDS011;10883;51.946;20.140;2023-01-31T16:11:29;53.35;;;22.38;;
21444;SDS011;10883;51.946;20.140;2023-01-31T16:13:56;54.55;;;19.33;;
21444;SDS011;10883;51.946;20.140;2023-01-31T16:16:25;44.30;;;15.93;;
21444;SDS011;10883;51.946;20.140;2023-01-31T16:18:53;36.63;;;13.13;;
21444;SDS011;10883;51.946;20.140;2023-01-31T16:23:58;55.78;;;19.60;;
21444;SDS011;10883;51.946;20.140;2023-01-31T16:26:33;50.35;;;18.40;;
21444;SDS011;10883;51.946;20.140;2023-01-31T16:29:06;59.70;;;19.25;;
21444;SDS011;10883;51.946;20.140;2023-01-31T16:31:44;49.60;;;17.63;;
21444;SDS011;10883;51.946;20.140;2023-01-31T16:34:32;46.72;;;15.07;;
21444;SDS011;10883;51.946;20.140;2023-01-31T16:37:03;37.17;;;13.38;;
21444;SDS011;10883;51.946;20.140;2023-01-31T16:39:46;36.17;;;11.55;;
21444;SDS011;10883;51.946;20.140;2023-01-31T16:44:47;48.70;;;16.13;;
21444;SDS011;10883;51.946;20.140;2023-01-31T16:47:45;65.57;;;22.73;;
21444;SDS011;10883;51.946;20.140;2023-01-31T16:52:47;93.82;;;32.38;;
21444;SDS011;10883;51.946;20.140;2023-01-31T16:55:16;46.42;;;19.23;;
21444;SDS011;10883;51.946;20.140;2023-01-31T16:57:43;35.22;;;14.95;;
21444;SDS011;10883;51.946;20.140;2023-01-31T17:02:48;55.42;;;19.85;;
21444;SDS011;10883;51.946;20.140;2023-01-31T17:07:44;37.22;;;14.48;;
21444;SDS011;10883;51.946;20.140;2023-01-31T17:10:19;36.28;;;12.13;;
21444;SDS011;10883;51.946;20.140;2023-01-31T17:13:02;27.75;;;10.73;;
21444;SDS011;10883;51.946;20.140;2023-01-31T17:15:30;36.58;;;14.38;;
21444;SDS011;10883;51.946;20.140;2023-01-31T17:17:56;38.95;;;15.07;;
21444;SDS011;10883;51.946;20.140;2023-01-31T17:20:22;48.58;;;19.75;;
21444;SDS011;10883;51.946;20.140;2023-01-31T17:22:48;51.97;;;21.65;;